createdAt,value
2022-08-10T00:00:54.625Z,1026.72
2022-08-10T00:01:54.870Z,1026.74
2022-08-10T00:02:54.969Z,1026.73
2022-08-10T00:03:55.122Z,1026.75
2022-08-10T00:04:55.290Z,1026.78
2022-08-10T00:05:55.453Z,1026.76
2022-08-10T00:06:55.805Z,1026.77
2022-08-10T00:07:55.784Z,1026.76
2022-08-10T00:08:55.972Z,1026.74
2022-08-10T00:09:56.145Z,1026.76
2022-08-10T00:10:56.303Z,1026.73
2022-08-10T00:11:56.473Z,1026.74
2022-08-10T00:12:56.878Z,1026.76
2022-08-10T00:13:56.828Z,1026.75
2022-08-10T00:14:56.997Z,1026.75
2022-08-10T00:15:57.172Z,1026.78
2022-08-10T00:16:57.326Z,1026.81
2022-08-10T00:17:57.475Z,1026.83
2022-08-10T00:18:57.664Z,1026.83
2022-08-10T00:20:04.129Z,1026.79
2022-08-10T00:20:58.986Z,1026.79
2022-08-10T00:21:58.166Z,1026.81
2022-08-10T00:22:58.366Z,1026.80
2022-08-10T00:23:58.517Z,1026.79
2022-08-10T00:24:58.718Z,1026.80
2022-08-10T00:25:58.878Z,1026.79
2022-08-10T00:28:00.768Z,1026.83
2022-08-10T00:28:03.281Z,1026.82
2022-08-10T00:28:59.393Z,1026.82
2022-08-10T00:29:59.590Z,1026.80
2022-08-10T00:30:59.749Z,1026.77
2022-08-10T00:31:59.948Z,1026.77
2022-08-10T00:33:00.099Z,1026.78
2022-08-10T00:34:00.252Z,1026.79
2022-08-10T00:35:00.462Z,1026.74
2022-08-10T00:36:00.619Z,1026.71
2022-08-10T00:37:00.783Z,1026.73
2022-08-10T00:38:00.934Z,1026.74
2022-08-10T00:39:01.124Z,1026.79
2022-08-10T00:40:01.369Z,1026.76
2022-08-10T00:41:01.498Z,1026.76
2022-08-10T00:42:07.738Z,1026.75
2022-08-10T00:43:02.845Z,1026.83
2022-08-10T00:44:02.024Z,1026.79
2022-08-10T00:45:02.200Z,1026.77
2022-08-10T00:46:02.355Z,1026.79
2022-08-10T00:47:02.517Z,1026.76
2022-08-10T00:48:02.676Z,1026.75
2022-08-10T00:49:02.836Z,1026.76
2022-08-10T00:50:03.008Z,1026.78
2022-08-10T00:51:03.168Z,1026.71
2022-08-10T00:52:03.327Z,1026.68
2022-08-10T00:53:03.487Z,1026.70
2022-08-10T00:54:03.639Z,1026.63
2022-08-10T00:55:03.818Z,1026.67
2022-08-10T00:57:12.512Z,1026.62
2022-08-10T00:57:16.223Z,1026.63
2022-08-10T00:58:05.321Z,1026.61
2022-08-10T00:59:04.510Z,1026.63
2022-08-10T01:00:04.694Z,1026.62
2022-08-10T01:01:04.884Z,1026.67
2022-08-10T01:02:11.233Z,1026.64
2022-08-10T01:03:06.268Z,1026.59
2022-08-10T01:04:58.687Z,1026.61
2022-08-10T01:05:06.597Z,1026.61
2022-08-10T01:06:05.778Z,1026.58
2022-08-10T01:07:05.935Z,1026.60
2022-08-10T01:08:06.104Z,1026.58
2022-08-10T01:09:06.274Z,1026.57
2022-08-10T01:10:06.454Z,1026.54
2022-08-10T01:11:06.615Z,1026.53
2022-08-10T01:12:39.043Z,1026.51
2022-08-10T01:13:07.965Z,1026.54
2022-08-10T01:14:07.143Z,1026.50
2022-08-10T01:15:07.317Z,1026.47
2022-08-10T01:16:07.478Z,1026.48
2022-08-10T01:17:08.656Z,1026.47
2022-08-10T01:18:07.838Z,1026.45
2022-08-10T01:19:08.018Z,1026.48
2022-08-10T01:20:08.178Z,1026.44
2022-08-10T01:21:08.329Z,1026.45
2022-08-10T01:22:08.529Z,1026.44
2022-08-10T01:23:08.700Z,1026.43
2022-08-10T01:24:08.869Z,1026.42
2022-08-10T01:25:09.032Z,1026.44
2022-08-10T01:26:11.392Z,1026.43
2022-08-10T01:27:09.382Z,1026.42
2022-08-10T01:28:09.542Z,1026.44
2022-08-10T01:29:09.703Z,1026.42
2022-08-10T01:30:09.852Z,1026.44
2022-08-10T01:31:10.065Z,1026.45
2022-08-10T01:32:10.223Z,1026.45
2022-08-10T01:33:10.413Z,1026.46
2022-08-10T01:34:10.604Z,1026.48
2022-08-10T01:35:10.774Z,1026.49
2022-08-10T01:36:10.926Z,1026.47
2022-08-10T01:37:11.123Z,1026.48
2022-08-10T01:38:11.276Z,1026.46
2022-08-10T01:39:11.504Z,1026.48
2022-08-10T01:40:11.640Z,1026.46
2022-08-10T01:41:11.827Z,1026.48
2022-08-10T01:42:11.987Z,1026.46
2022-08-10T01:43:12.147Z,1026.52
2022-08-10T01:44:12.318Z,1026.53
2022-08-10T01:45:12.479Z,1026.53
2022-08-10T01:46:12.632Z,1026.47
2022-08-10T01:47:12.829Z,1026.49
2022-08-10T01:48:16.751Z,1026.47
2022-08-10T01:49:13.188Z,1026.45
2022-08-10T01:50:13.353Z,1026.42
2022-08-10T01:51:13.502Z,1026.43
2022-08-10T01:52:18.228Z,1026.49
2022-08-10T01:53:13.882Z,1026.45
2022-08-10T01:54:14.051Z,1026.49
2022-08-10T01:55:14.215Z,1026.47
2022-08-10T01:56:14.373Z,1026.48
2022-08-10T01:57:14.522Z,1026.44
2022-08-10T01:58:14.714Z,1026.48
2022-08-10T01:59:14.884Z,1026.48
2022-08-10T02:00:15.045Z,1026.46
2022-08-10T02:01:16.978Z,1026.49
2022-08-10T02:02:15.387Z,1026.44
2022-08-10T02:03:15.550Z,1026.49
2022-08-10T02:04:15.717Z,1026.51
2022-08-10T02:05:15.904Z,1026.47
2022-08-10T02:06:16.037Z,1026.47
2022-08-10T02:07:16.231Z,1026.49
2022-08-10T02:08:16.406Z,1026.54
2022-08-10T02:09:16.559Z,1026.51
2022-08-10T02:10:16.759Z,1026.55
2022-08-10T02:11:16.909Z,1026.53
2022-08-10T02:12:17.105Z,1026.53
2022-08-10T02:13:17.279Z,1026.52
2022-08-10T02:14:17.439Z,1026.55
2022-08-10T02:15:17.611Z,1026.57
2022-08-10T02:16:17.794Z,1026.60
2022-08-10T02:17:59.838Z,1026.61
2022-08-10T02:18:19.152Z,1026.57
2022-08-10T02:19:18.290Z,1026.55
2022-08-10T02:20:18.453Z,1026.55
2022-08-10T02:21:18.606Z,1026.55
2022-08-10T02:22:36.972Z,1026.54
2022-08-10T02:23:19.962Z,1026.53
2022-08-10T02:24:19.137Z,1026.54
2022-08-10T02:25:41.910Z,1026.55
2022-08-10T02:26:20.483Z,1026.55
2022-08-10T02:27:19.655Z,1026.55
2022-08-10T02:28:29.437Z,1026.52
2022-08-10T02:29:20.982Z,1026.47
2022-08-10T02:30:20.165Z,1026.52
2022-08-10T02:31:23.159Z,1026.52
2022-08-10T02:32:36.395Z,1026.51
2022-08-10T02:33:21.676Z,1026.53
2022-08-10T02:34:20.836Z,1026.53
2022-08-10T02:35:22.718Z,1026.50
2022-08-10T02:36:21.178Z,1026.55
2022-08-10T02:37:21.367Z,1026.51
2022-08-10T02:38:21.545Z,1026.51
2022-08-10T02:39:21.861Z,1026.55
2022-08-10T02:45:06.355Z,1026.57
2022-08-10T02:45:12.481Z,1026.54
2022-08-10T02:45:22.199Z,1026.58
2022-08-10T02:45:24.118Z,1026.62
2022-08-10T02:45:24.426Z,1026.58
2022-08-10T02:45:30.966Z,1026.64
2022-08-10T02:46:23.909Z,1026.60
2022-08-10T02:47:23.082Z,1026.62
2022-08-10T02:48:23.272Z,1026.65
2022-08-10T02:49:23.452Z,1026.63
2022-08-10T02:50:23.605Z,1026.62
2022-08-10T02:52:07.508Z,1026.59
2022-08-10T02:52:24.972Z,1026.58
2022-08-10T02:53:49.518Z,1026.57
2022-08-10T02:54:25.354Z,1026.60
2022-08-10T02:55:27.102Z,1026.55
2022-08-10T02:56:25.703Z,1026.55
2022-08-10T02:57:24.885Z,1026.57
2022-08-10T02:58:25.045Z,1026.55
2022-08-10T02:59:25.216Z,1026.58
2022-08-10T03:00:25.385Z,1026.56
2022-08-10T03:01:25.633Z,1026.56
2022-08-10T03:02:25.808Z,1026.57
2022-08-10T03:03:25.898Z,1026.57
2022-08-10T03:04:55.345Z,1026.58
2022-08-10T03:05:27.247Z,1026.57
2022-08-10T03:06:26.421Z,1026.55
2022-08-10T03:07:43.399Z,1026.58
2022-08-10T03:08:27.758Z,1026.56
2022-08-10T03:09:26.945Z,1026.59
2022-08-10T03:10:27.129Z,1026.63
2022-08-10T03:12:35.560Z,1026.60
2022-08-10T03:12:36.863Z,1026.61
2022-08-10T03:13:28.640Z,1026.64
2022-08-10T03:14:27.821Z,1026.61
2022-08-10T03:15:27.980Z,1026.63
2022-08-10T03:16:33.401Z,1026.61
2022-08-10T03:17:29.323Z,1026.61
2022-08-10T03:18:28.525Z,1026.58
2022-08-10T03:20:33.469Z,1026.58
2022-08-10T03:20:36.979Z,1026.60
2022-08-10T03:21:30.033Z,1026.61
2022-08-10T03:22:29.234Z,1026.62
2022-08-10T03:23:29.392Z,1026.58
2022-08-10T03:24:32.799Z,1026.54
2022-08-10T03:25:29.735Z,1026.57
2022-08-10T03:26:29.925Z,1026.55
2022-08-10T03:27:30.096Z,1026.55
2022-08-10T03:28:30.305Z,1026.52
2022-08-10T03:29:30.427Z,1026.53
2022-08-10T03:30:33.862Z,1026.50
2022-08-10T03:31:30.767Z,1026.49
2022-08-10T03:32:30.960Z,1026.45
2022-08-10T03:33:31.091Z,1026.51
2022-08-10T03:34:33.509Z,1026.50
2022-08-10T03:35:31.419Z,1026.49
2022-08-10T03:36:41.229Z,1026.51
2022-08-10T03:37:32.772Z,1026.52
2022-08-10T03:38:31.950Z,1026.55
2022-08-10T03:39:32.155Z,1026.52
2022-08-10T03:40:45.250Z,1026.52
2022-08-10T03:41:35.547Z,1026.53
2022-08-10T03:42:32.622Z,1026.56
2022-08-10T03:43:32.802Z,1026.55
2022-08-10T03:44:32.970Z,1026.55
2022-08-10T03:45:49.388Z,1026.55
2022-08-10T03:46:34.303Z,1026.53
2022-08-10T03:47:33.462Z,1026.54
2022-08-10T03:48:44.562Z,1026.58
2022-08-10T03:49:34.804Z,1026.58
2022-08-10T03:50:51.520Z,1026.62
2022-08-10T03:51:35.185Z,1026.63
2022-08-10T03:52:34.385Z,1026.65
2022-08-10T03:54:05.626Z,1026.64
2022-08-10T03:54:35.695Z,1026.61
2022-08-10T03:56:30.499Z,1026.67
2022-08-10T03:56:36.044Z,1026.66
2022-08-10T03:57:35.212Z,1026.67
2022-08-10T03:58:36.367Z,1026.67
2022-08-10T03:59:35.528Z,1026.70
2022-08-10T04:00:35.753Z,1026.65
2022-08-10T04:02:44.769Z,1026.64
2022-08-10T04:02:46.227Z,1026.71
2022-08-10T04:03:37.210Z,1026.69
2022-08-10T04:04:36.379Z,1026.66
2022-08-10T04:05:38.581Z,1026.64
2022-08-10T04:06:36.730Z,1026.65
2022-08-10T04:07:36.930Z,1026.65
2022-08-10T04:08:37.108Z,1026.70
2022-08-10T04:09:55.588Z,1026.65
2022-08-10T04:10:38.474Z,1026.62
2022-08-10T04:11:37.621Z,1026.65
2022-08-10T04:12:37.823Z,1026.65
2022-08-10T04:13:37.971Z,1026.59
2022-08-10T04:14:50.623Z,1026.61
2022-08-10T04:15:39.335Z,1026.63
2022-08-10T04:16:38.503Z,1026.60
2022-08-10T04:18:02.637Z,1026.63
2022-08-10T04:18:39.867Z,1026.61
2022-08-10T04:19:39.024Z,1026.65
2022-08-10T04:20:39.203Z,1026.66
2022-08-10T04:21:39.379Z,1026.66
2022-08-10T04:22:39.575Z,1026.68
2022-08-10T04:23:39.722Z,1026.67
2022-08-10T04:24:39.896Z,1026.67
2022-08-10T04:25:40.075Z,1026.69
2022-08-10T04:26:40.256Z,1026.67
2022-08-10T04:27:40.450Z,1026.70
2022-08-10T04:28:40.619Z,1026.73
2022-08-10T04:29:40.799Z,1026.70
2022-08-10T04:30:40.979Z,1026.71
2022-08-10T04:31:41.506Z,1026.69
2022-08-10T04:32:41.360Z,1026.70
2022-08-10T04:33:41.528Z,1026.69
2022-08-10T04:34:41.702Z,1026.68
2022-08-10T04:35:41.919Z,1026.72
2022-08-10T04:36:42.062Z,1026.71
2022-08-10T04:37:46.694Z,1026.73
2022-08-10T04:38:43.431Z,1026.69
2022-08-10T04:39:42.677Z,1026.75
2022-08-10T04:40:42.763Z,1026.74
2022-08-10T04:41:46.704Z,1026.77
2022-08-10T04:42:43.092Z,1026.76
2022-08-10T04:43:43.264Z,1026.78
2022-08-10T04:44:43.433Z,1026.77
2022-08-10T04:45:49.717Z,1026.80
2022-08-10T04:46:57.617Z,1026.79
2022-08-10T04:47:57.714Z,1026.78
2022-08-10T04:49:01.701Z,1026.80
2022-08-10T04:49:54.846Z,1026.78
2022-08-10T04:50:45.490Z,1026.81
2022-08-10T04:51:44.656Z,1026.78
2022-08-10T04:52:44.837Z,1026.81
2022-08-10T04:54:06.079Z,1026.82
2022-08-10T04:54:46.171Z,1026.85
2022-08-10T04:55:45.335Z,1026.83
2022-08-10T04:56:45.527Z,1026.82
2022-08-10T04:57:45.669Z,1026.82
2022-08-10T04:58:45.861Z,1026.83
2022-08-10T04:59:46.031Z,1026.87
2022-08-10T05:00:46.253Z,1026.87
2022-08-10T05:02:27.951Z,1026.85
2022-08-10T05:02:47.559Z,1026.90
2022-08-10T05:04:36.915Z,1026.90
2022-08-10T05:04:47.921Z,1026.93
2022-08-10T05:05:47.082Z,1026.93
2022-08-10T05:06:47.281Z,1026.96
2022-08-10T05:07:54.319Z,1026.94
2022-08-10T05:08:48.653Z,1026.92
2022-08-10T05:10:01.274Z,1026.96
2022-08-10T05:10:49.008Z,1026.94
2022-08-10T05:11:48.174Z,1026.94
2022-08-10T05:12:48.344Z,1026.97
2022-08-10T05:13:48.525Z,1026.94
2022-08-10T05:14:48.742Z,1026.93
2022-08-10T05:15:48.905Z,1026.95
2022-08-10T05:16:49.096Z,1026.94
2022-08-10T05:18:04.644Z,1026.95
2022-08-10T05:18:50.417Z,1026.93
2022-08-10T05:20:04.638Z,1026.96
2022-08-10T05:20:50.772Z,1026.96
2022-08-10T05:21:56.959Z,1026.96
2022-08-10T05:22:51.107Z,1026.99
2022-08-10T05:23:50.285Z,1026.96
2022-08-10T05:24:50.480Z,1026.98
2022-08-10T05:25:50.648Z,1027.01
2022-08-10T05:27:00.128Z,1027.02
2022-08-10T05:27:52.558Z,1027.00
2022-08-10T05:28:51.199Z,1027.06
2022-08-10T05:30:01.407Z,1027.00
2022-08-10T05:30:52.562Z,1027.03
2022-08-10T05:31:51.770Z,1027.07
2022-08-10T05:32:59.008Z,1027.04
2022-08-10T05:33:53.141Z,1027.05
2022-08-10T05:34:52.303Z,1027.03
2022-08-10T05:35:57.223Z,1027.02
2022-08-10T05:36:53.653Z,1027.00
2022-08-10T05:38:09.114Z,1027.05
2022-08-10T05:38:53.994Z,1027.07
2022-08-10T05:39:53.272Z,1027.02
2022-08-10T05:40:53.364Z,1027.08
2022-08-10T05:41:53.515Z,1027.04
2022-08-10T05:42:53.713Z,1027.04
2022-08-10T05:43:53.895Z,1027.10
2022-08-10T05:44:54.096Z,1027.08
2022-08-10T05:46:18.430Z,1027.08
2022-08-10T05:46:55.463Z,1027.08
2022-08-10T05:48:42.019Z,1027.09
2022-08-10T05:49:00.170Z,1027.07
2022-08-10T05:49:55.997Z,1027.09
2022-08-10T05:50:55.197Z,1027.12
2022-08-10T05:51:55.348Z,1027.10
2022-08-10T05:52:55.559Z,1027.11
2022-08-10T05:54:02.116Z,1027.14
2022-08-10T05:55:02.260Z,1027.17
2022-08-10T05:55:57.088Z,1027.11
2022-08-10T05:56:58.245Z,1027.16
2022-08-10T05:57:56.474Z,1027.17
2022-08-10T05:58:56.642Z,1027.15
2022-08-10T06:00:35.089Z,1027.18
2022-08-10T06:00:58.017Z,1027.12
2022-08-10T06:02:31.784Z,1027.19
2022-08-10T06:02:58.282Z,1027.15
2022-08-10T06:03:57.431Z,1027.13
2022-08-10T06:04:57.623Z,1027.14
2022-08-10T06:05:57.779Z,1027.14
2022-08-10T06:06:57.965Z,1027.15
2022-08-10T06:07:58.159Z,1027.16
2022-08-10T06:08:58.334Z,1027.13
2022-08-10T06:10:00.210Z,1027.16
2022-08-10T06:12:24.214Z,1027.14
2022-08-10T06:12:27.267Z,1027.16
2022-08-10T06:13:01.450Z,1027.16
2022-08-10T06:14:12.496Z,1027.16
2022-08-10T06:15:00.408Z,1027.19
2022-08-10T06:16:00.557Z,1027.18
2022-08-10T06:16:59.742Z,1027.18
2022-08-10T06:18:01.976Z,1027.20
2022-08-10T06:19:00.117Z,1027.19
2022-08-10T06:20:00.260Z,1027.21
2022-08-10T06:21:00.446Z,1027.18
2022-08-10T06:22:01.710Z,1027.25
2022-08-10T06:23:00.792Z,1027.22
2022-08-10T06:24:01.005Z,1027.23
2022-08-10T06:26:08.477Z,1027.25
2022-08-10T06:27:02.492Z,1027.29
2022-08-10T06:28:01.650Z,1027.29
2022-08-10T06:29:03.749Z,1027.24
2022-08-10T06:30:02.022Z,1027.23
2022-08-10T06:31:02.218Z,1027.24
2022-08-10T06:32:02.403Z,1027.25
2022-08-10T06:33:02.562Z,1027.26
2022-08-10T06:34:02.752Z,1027.23
2022-08-10T06:35:02.928Z,1027.19
2022-08-10T06:36:03.086Z,1027.24
2022-08-10T06:37:03.272Z,1027.22
2022-08-10T06:38:03.476Z,1027.22
2022-08-10T06:39:23.259Z,1027.26
2022-08-10T06:40:04.817Z,1027.18
2022-08-10T06:41:03.959Z,1027.19
2022-08-10T06:42:15.980Z,1027.20
2022-08-10T06:43:05.326Z,1027.17
2022-08-10T06:44:04.486Z,1027.18
2022-08-10T06:45:04.668Z,1027.19
2022-08-10T06:46:07.164Z,1027.18
2022-08-10T06:47:04.998Z,1027.23
2022-08-10T06:48:05.190Z,1027.22
2022-08-10T06:49:05.389Z,1027.19
2022-08-10T06:50:09.242Z,1027.21
2022-08-10T06:51:05.728Z,1027.17
2022-08-10T06:52:05.917Z,1027.16
2022-08-10T06:53:06.119Z,1027.14
2022-08-10T06:54:06.293Z,1027.14
2022-08-10T06:55:08.548Z,1027.15
2022-08-10T06:56:06.638Z,1027.16
2022-08-10T06:57:17.857Z,1027.14
2022-08-10T06:58:08.002Z,1027.16
2022-08-10T06:59:07.179Z,1027.13
2022-08-10T07:00:08.346Z,1027.13
2022-08-10T07:01:07.602Z,1027.07
2022-08-10T07:02:07.702Z,1027.09
2022-08-10T07:03:08.091Z,1027.10
2022-08-10T07:04:08.033Z,1027.09
2022-08-10T07:05:08.205Z,1027.11
2022-08-10T07:06:08.365Z,1027.14
2022-08-10T07:07:08.515Z,1027.10
2022-08-10T07:08:08.695Z,1027.13
2022-08-10T07:09:08.875Z,1027.12
2022-08-10T07:10:10.059Z,1027.12
2022-08-10T07:11:11.999Z,1027.12
2022-08-10T07:12:09.618Z,1027.06
2022-08-10T07:13:09.565Z,1027.12
2022-08-10T07:14:15.633Z,1027.13
2022-08-10T07:15:10.928Z,1027.13
2022-08-10T07:16:10.108Z,1027.11
2022-08-10T07:17:15.170Z,1027.10
2022-08-10T07:18:11.437Z,1027.11
2022-08-10T07:19:10.609Z,1027.09
2022-08-10T07:20:10.795Z,1027.09
2022-08-10T07:21:10.990Z,1027.11
2022-08-10T07:22:11.197Z,1027.09
2022-08-10T07:23:58.155Z,1027.05
2022-08-10T07:24:12.508Z,1027.07
2022-08-10T07:25:11.693Z,1027.07
2022-08-10T07:26:11.895Z,1027.10
2022-08-10T07:27:12.055Z,1027.08
2022-08-10T07:28:12.196Z,1027.05
2022-08-10T07:29:52.909Z,1027.01
2022-08-10T07:30:13.569Z,1027.04
2022-08-10T07:31:55.005Z,1026.98
2022-08-10T07:32:13.884Z,1027.03
2022-08-10T07:33:13.054Z,1027.02
2022-08-10T07:34:13.234Z,1027.01
2022-08-10T07:35:14.420Z,1027.01
2022-08-10T07:36:13.575Z,1027.04
2022-08-10T07:37:13.726Z,1026.98
2022-08-10T07:38:13.919Z,1027.04
2022-08-10T07:39:14.148Z,1027.00
2022-08-10T07:40:14.305Z,1027.00
2022-08-10T07:41:14.485Z,1026.99
2022-08-10T07:42:14.618Z,1027.03
2022-08-10T07:43:14.782Z,1026.99
2022-08-10T07:44:14.958Z,1026.98
2022-08-10T07:45:15.134Z,1027.03
2022-08-10T07:46:15.311Z,1027.01
2022-08-10T07:47:15.495Z,1027.04
2022-08-10T07:48:15.702Z,1027.10
2022-08-10T07:49:19.089Z,1027.03
2022-08-10T07:50:16.031Z,1027.07
2022-08-10T07:51:16.182Z,1027.04
2022-08-10T07:52:16.392Z,1027.05
2022-08-10T07:53:16.556Z,1027.02
2022-08-10T07:54:16.725Z,1027.02
2022-08-10T07:55:16.906Z,1027.06
2022-08-10T07:56:38.707Z,1027.05
2022-08-10T07:57:30.998Z,1027.07
2022-08-10T07:58:18.431Z,1027.01
2022-08-10T07:59:17.575Z,1027.07
2022-08-10T08:00:17.756Z,1027.08
2022-08-10T08:01:18.952Z,1027.08
2022-08-10T08:02:18.121Z,1027.08
2022-08-10T08:03:18.260Z,1027.07
2022-08-10T08:04:18.446Z,1027.07
2022-08-10T08:05:27.602Z,1027.07
2022-08-10T08:06:19.797Z,1027.06
2022-08-10T08:07:21.417Z,1027.06
2022-08-10T08:08:19.147Z,1027.07
2022-08-10T08:09:19.298Z,1027.05
2022-08-10T08:10:19.573Z,1027.05
2022-08-10T08:11:26.351Z,1027.04
2022-08-10T08:12:20.861Z,1027.01
2022-08-10T08:13:20.038Z,1027.00
2022-08-10T08:14:20.192Z,1027.01
2022-08-10T08:16:16.858Z,1026.99
2022-08-10T08:16:22.190Z,1026.99
2022-08-10T08:17:20.701Z,1026.99
2022-08-10T08:18:25.322Z,1026.97
2022-08-10T08:19:26.633Z,1026.99
2022-08-10T08:20:22.204Z,1026.98
2022-08-10T08:24:05.429Z,1027.03
2022-08-10T08:24:05.948Z,1026.99
2022-08-10T08:24:13.641Z,1027.04
2022-08-10T08:24:32.220Z,1027.01
2022-08-10T08:25:23.074Z,1026.98
2022-08-10T08:26:22.267Z,1026.98
2022-08-10T08:27:22.460Z,1026.97
2022-08-10T08:28:22.635Z,1027.05
2022-08-10T08:29:22.822Z,1027.02
2022-08-10T08:30:27.070Z,1026.99
2022-08-10T08:31:24.187Z,1026.99
2022-08-10T08:32:23.369Z,1026.98
2022-08-10T08:33:42.651Z,1026.99
2022-08-10T08:34:24.688Z,1026.97
2022-08-10T08:35:23.877Z,1026.99
2022-08-10T08:36:24.059Z,1026.97
2022-08-10T08:38:30.289Z,1026.95
2022-08-10T08:38:32.719Z,1026.93
2022-08-10T08:39:25.632Z,1026.95
2022-08-10T08:40:24.752Z,1026.92
2022-08-10T08:41:24.939Z,1026.91
2022-08-10T08:42:25.135Z,1026.90
2022-08-10T08:43:29.709Z,1026.84
2022-08-10T08:44:26.472Z,1026.86
2022-08-10T08:45:25.632Z,1026.82
2022-08-10T08:46:25.833Z,1026.80
2022-08-10T08:48:04.688Z,1026.90
2022-08-10T08:48:27.174Z,1026.83
2022-08-10T08:50:05.047Z,1026.84
2022-08-10T08:50:27.523Z,1026.83
2022-08-10T08:52:12.493Z,1026.86
2022-08-10T08:52:27.996Z,1026.88
2022-08-10T08:54:00.983Z,1026.84
2022-08-10T08:54:28.224Z,1026.81
2022-08-10T08:56:03.840Z,1026.81
2022-08-10T08:56:28.587Z,1026.79
2022-08-10T08:57:50.800Z,1026.82
2022-08-10T08:58:28.909Z,1026.81
2022-08-10T08:59:28.095Z,1026.83
2022-08-10T09:00:28.291Z,1026.82
2022-08-10T09:01:38.282Z,1026.82
2022-08-10T09:02:29.648Z,1026.80
2022-08-10T09:03:28.897Z,1026.78
2022-08-10T09:04:28.982Z,1026.76
2022-08-10T09:05:29.162Z,1026.76
2022-08-10T09:06:29.352Z,1026.82
2022-08-10T09:07:58.966Z,1026.81
2022-08-10T09:08:30.690Z,1026.74
2022-08-10T09:09:29.871Z,1026.80
2022-08-10T09:10:32.984Z,1026.81
2022-08-10T09:11:31.252Z,1026.80
2022-08-10T09:12:30.409Z,1026.85
2022-08-10T09:13:30.590Z,1026.80
2022-08-10T09:14:30.793Z,1026.78
2022-08-10T09:15:39.641Z,1026.82
2022-08-10T09:16:32.143Z,1026.80
2022-08-10T09:17:31.309Z,1026.81
2022-08-10T09:18:31.496Z,1026.78
2022-08-10T09:19:36.696Z,1026.75
2022-08-10T09:20:32.838Z,1026.82
2022-08-10T09:21:31.996Z,1026.81
2022-08-10T09:22:32.192Z,1026.77
2022-08-10T09:24:02.257Z,1026.76
2022-08-10T09:24:33.538Z,1026.73
2022-08-10T09:25:32.725Z,1026.74
2022-08-10T09:26:32.909Z,1026.73
2022-08-10T09:27:33.087Z,1026.73
2022-08-10T09:28:33.299Z,1026.71
2022-08-10T09:29:33.451Z,1026.71
2022-08-10T09:30:38.174Z,1026.77
2022-08-10T09:31:38.645Z,1026.73
2022-08-10T09:36:13.512Z,1026.73
2022-08-10T09:36:19.530Z,1026.71
2022-08-10T09:36:21.608Z,1026.72
2022-08-10T09:36:23.353Z,1026.69
2022-08-10T09:36:36.110Z,1026.75
2022-08-10T09:37:40.026Z,1026.72
2022-08-10T09:38:36.011Z,1026.70
2022-08-10T09:40:55.914Z,1026.66
2022-08-10T09:41:00.368Z,1026.64
2022-08-10T09:41:36.605Z,1026.61
2022-08-10T09:42:35.818Z,1026.62
2022-08-10T09:43:35.864Z,1026.67
2022-08-10T09:44:36.014Z,1026.60
2022-08-10T09:45:37.200Z,1026.59
2022-08-10T09:46:36.367Z,1026.58
2022-08-10T09:48:01.150Z,1026.57
2022-08-10T09:48:37.685Z,1026.53
2022-08-10T09:49:54.463Z,1026.60
2022-08-10T09:51:21.007Z,1026.63
2022-08-10T09:51:47.034Z,1026.65
2022-08-10T09:52:38.521Z,1026.64
2022-08-10T09:53:37.560Z,1026.60
2022-08-10T09:54:37.705Z,1026.62
2022-08-10T09:56:17.916Z,1026.60
2022-08-10T09:56:39.091Z,1026.59
2022-08-10T09:57:54.676Z,1026.55
2022-08-10T09:58:39.419Z,1026.53
2022-08-10T10:00:00.132Z,1026.55
2022-08-10T10:00:39.740Z,1026.53
2022-08-10T10:01:58.152Z,1026.52
2022-08-10T10:02:40.059Z,1026.47
2022-08-10T10:03:39.272Z,1026.47
2022-08-10T10:04:39.422Z,1026.42
2022-08-10T10:05:39.616Z,1026.44
2022-08-10T10:06:40.742Z,1026.42
2022-08-10T10:07:39.896Z,1026.41
2022-08-10T10:08:42.997Z,1026.43
2022-08-10T10:09:40.274Z,1026.42
2022-08-10T10:10:46.638Z,1026.37
2022-08-10T10:11:41.609Z,1026.38
2022-08-10T10:12:40.776Z,1026.36
2022-08-10T10:13:52.709Z,1026.32
2022-08-10T10:14:42.117Z,1026.33
2022-08-10T10:15:41.317Z,1026.32
2022-08-10T10:16:41.497Z,1026.38
2022-08-10T10:17:41.659Z,1026.35
2022-08-10T10:18:41.838Z,1026.27
2022-08-10T10:19:42.029Z,1026.25
2022-08-10T10:20:42.213Z,1026.24
2022-08-10T10:21:54.362Z,1026.26
2022-08-10T10:22:43.560Z,1026.25
2022-08-10T10:23:51.409Z,1026.22
2022-08-10T10:24:43.903Z,1026.23
2022-08-10T10:25:51.310Z,1026.26
2022-08-10T10:26:44.242Z,1026.26
2022-08-10T10:27:43.411Z,1026.28
2022-08-10T10:29:24.920Z,1026.26
2022-08-10T10:29:58.599Z,1026.26
2022-08-10T10:30:44.903Z,1026.24
2022-08-10T10:31:44.084Z,1026.20
2022-08-10T10:32:44.293Z,1026.20
2022-08-10T10:33:44.434Z,1026.18
2022-08-10T10:34:44.625Z,1026.20
2022-08-10T10:35:44.774Z,1026.16
2022-08-10T10:36:44.966Z,1026.16
2022-08-10T10:38:01.027Z,1026.13
2022-08-10T10:38:46.315Z,1026.14
2022-08-10T10:39:45.536Z,1026.13
2022-08-10T10:40:45.696Z,1026.09
2022-08-10T10:42:03.449Z,1026.08
2022-08-10T10:42:47.037Z,1026.13
2022-08-10T10:43:46.188Z,1026.13
2022-08-10T10:44:46.382Z,1026.06
2022-08-10T10:45:50.459Z,1026.08
2022-08-10T10:46:46.739Z,1026.03
2022-08-10T10:47:46.933Z,1026.03
2022-08-10T10:48:47.079Z,1026.03
2022-08-10T10:49:47.272Z,1026.02
2022-08-10T10:50:47.430Z,1026.01
2022-08-10T10:51:47.621Z,1025.99
2022-08-10T10:52:47.766Z,1026.00
2022-08-10T10:53:47.952Z,1026.01
2022-08-10T10:54:48.144Z,1026.04
2022-08-10T10:55:49.998Z,1026.05
2022-08-10T10:56:49.464Z,1026.01
2022-08-10T10:57:59.567Z,1025.99
2022-08-10T10:58:49.805Z,1025.94
2022-08-10T10:59:55.565Z,1025.91
2022-08-10T11:00:50.143Z,1025.86
2022-08-10T11:01:49.354Z,1025.87
2022-08-10T11:02:49.456Z,1025.86
2022-08-10T11:03:49.642Z,1025.84
2022-08-10T11:04:52.904Z,1025.86
2022-08-10T11:05:50.988Z,1025.83
2022-08-10T11:06:50.233Z,1025.85
2022-08-10T11:07:53.485Z,1025.84
2022-08-10T11:08:52.322Z,1025.85
2022-08-10T11:10:04.744Z,1025.83
2022-08-10T11:10:52.828Z,1025.78
2022-08-10T11:12:01.690Z,1025.73
2022-08-10T11:12:52.210Z,1025.74
2022-08-10T11:14:27.565Z,1025.77
2022-08-10T11:14:52.561Z,1025.76
2022-08-10T11:15:51.761Z,1025.77
2022-08-10T11:16:56.343Z,1025.84
2022-08-10T11:17:53.093Z,1025.85
2022-08-10T11:18:52.260Z,1025.86
2022-08-10T11:20:00.507Z,1025.80
2022-08-10T11:20:53.614Z,1025.81
2022-08-10T11:21:52.794Z,1025.80
2022-08-10T11:22:52.933Z,1025.75
2022-08-10T11:24:47.430Z,1025.77
2022-08-10T11:24:54.305Z,1025.75
2022-08-10T11:25:53.464Z,1025.70
2022-08-10T11:26:53.665Z,1025.70
2022-08-10T11:27:53.855Z,1025.70
2022-08-10T11:28:54.039Z,1025.69
2022-08-10T11:29:54.197Z,1025.69
2022-08-10T11:30:54.376Z,1025.68
2022-08-10T11:31:54.527Z,1025.70
2022-08-10T11:32:54.739Z,1025.70
2022-08-10T11:34:46.594Z,1025.71
2022-08-10T11:35:11.391Z,1025.71
2022-08-10T11:35:56.232Z,1025.69
2022-08-10T11:36:55.410Z,1025.61
2022-08-10T11:38:31.958Z,1025.64
2022-08-10T11:39:13.403Z,1025.62
2022-08-10T11:39:56.967Z,1025.59
2022-08-10T11:40:56.106Z,1025.62
2022-08-10T11:42:08.588Z,1025.59
2022-08-10T11:42:57.442Z,1025.62
2022-08-10T11:43:56.633Z,1025.54
2022-08-10T11:44:56.789Z,1025.56
2022-08-10T11:45:56.980Z,1025.58
2022-08-10T11:46:57.145Z,1025.50
2022-08-10T11:47:57.323Z,1025.47
2022-08-10T11:49:02.107Z,1025.45
2022-08-10T11:49:58.763Z,1025.44
2022-08-10T11:50:57.834Z,1025.40
2022-08-10T11:51:57.997Z,1025.38
2022-08-10T11:52:58.166Z,1025.38
2022-08-10T11:53:58.325Z,1025.38
2022-08-10T11:54:58.478Z,1025.34
2022-08-10T11:55:58.677Z,1025.37
2022-08-10T11:57:02.580Z,1025.38
2022-08-10T11:57:58.984Z,1025.40
2022-08-10T11:58:59.152Z,1025.41
2022-08-10T11:59:59.650Z,1025.38
2022-08-10T12:00:59.510Z,1025.37
2022-08-10T12:01:59.741Z,1025.38
2022-08-10T12:02:59.931Z,1025.38
2022-08-10T12:04:00.084Z,1025.40
2022-08-10T12:05:00.233Z,1025.37
2022-08-10T12:06:00.403Z,1025.40
2022-08-10T12:07:00.589Z,1025.32
2022-08-10T12:10:04.949Z,1025.34
2022-08-10T12:10:05.695Z,1025.31